createdAt,value
2023-04-17T00:01:42.698Z,21.50
2023-04-17T00:04:11.644Z,27.30
2023-04-17T00:06:40.203Z,23.80
2023-04-17T00:09:10.244Z,20.70
2023-04-17T00:11:38.727Z,24.10
2023-04-17T00:14:06.810Z,22.90
2023-04-17T00:16:34.998Z,20.00
2023-04-17T00:19:03.205Z,19.90
2023-04-17T00:21:32.037Z,28.00
2023-04-17T00:23:59.956Z,22.50
2023-04-17T00:26:27.879Z,27.50
2023-04-17T00:28:56.413Z,24.50
2023-04-17T00:31:24.454Z,25.80
2023-04-17T00:33:52.360Z,18.90
2023-04-17T00:36:20.291Z,20.80
2023-04-17T00:38:48.696Z,21.30
2023-04-17T00:41:16.784Z,19.40
2023-04-17T00:43:44.658Z,21.00
2023-04-17T00:46:13.880Z,24.20
2023-04-17T00:48:41.831Z,20.00
2023-04-17T00:51:13.241Z,25.10
2023-04-17T00:53:41.360Z,23.90
2023-04-17T00:56:09.367Z,23.80
2023-04-17T00:58:38.719Z,24.60
2023-04-17T01:01:06.844Z,20.70
2023-04-17T01:03:35.710Z,26.40
2023-04-17T01:06:04.905Z,24.00
2023-04-17T01:08:40.935Z,21.40
2023-04-17T01:11:10.070Z,25.20
2023-04-17T01:13:46.404Z,20.50
2023-04-17T01:16:14.859Z,18.90
2023-04-17T01:18:42.794Z,22.50
2023-04-17T01:21:11.077Z,20.10
2023-04-17T01:23:52.238Z,18.80
2023-04-17T01:26:25.027Z,17.70
2023-04-17T01:28:57.689Z,23.70
2023-04-17T01:31:26.462Z,22.60
2023-04-17T01:33:55.114Z,21.10
2023-04-17T01:36:23.182Z,17.30
2023-04-17T01:38:51.058Z,23.00
2023-04-17T01:41:19.728Z,25.60
2023-04-17T01:43:47.763Z,21.00
2023-04-17T01:46:16.002Z,22.00
2023-04-17T01:48:44.020Z,22.30
2023-04-17T01:51:12.068Z,20.50
2023-04-17T01:53:40.158Z,20.40
2023-04-17T01:56:08.101Z,15.80
2023-04-17T01:58:36.251Z,17.70
2023-04-17T02:01:04.508Z,20.10
2023-04-17T02:03:33.420Z,17.00
2023-04-17T02:06:01.756Z,16.40
2023-04-17T02:08:30.567Z,21.00
2023-04-17T02:10:59.974Z,18.10
2023-04-17T02:13:28.504Z,17.40
2023-04-17T02:15:57.946Z,23.50
2023-04-17T02:18:30.477Z,20.40
2023-04-17T02:21:01.338Z,15.90
2023-04-17T02:23:29.629Z,16.40
2023-04-17T02:25:57.930Z,17.10
2023-04-17T02:31:32.399Z,16.90
2023-04-17T02:34:00.478Z,20.50
2023-04-17T02:36:28.855Z,22.40
2023-04-17T02:38:56.832Z,17.50
2023-04-17T02:41:24.768Z,17.20
2023-04-17T02:43:53.112Z,20.20
2023-04-17T02:46:21.841Z,16.40
2023-04-17T02:48:49.898Z,21.20
2023-04-17T02:51:18.540Z,17.20
2023-04-17T02:53:46.941Z,20.50
2023-04-17T02:56:15.549Z,16.90
2023-04-17T02:58:45.162Z,20.10
2023-04-17T03:01:13.413Z,15.90
2023-04-17T03:03:45.116Z,21.00
2023-04-17T03:06:14.583Z,15.60
2023-04-17T03:08:42.503Z,17.70
2023-04-17T03:11:11.482Z,18.40
2023-04-17T03:13:39.570Z,18.40
2023-04-17T03:16:07.561Z,20.80
2023-04-17T03:18:39.743Z,20.50
2023-04-17T03:21:08.019Z,20.00
2023-04-17T03:23:36.339Z,22.80
2023-04-17T03:26:05.051Z,16.90
2023-04-17T03:28:34.048Z,16.90
2023-04-17T03:31:02.588Z,19.20
2023-04-17T03:33:32.212Z,20.50
2023-04-17T03:36:00.417Z,23.00
2023-04-17T03:38:29.838Z,17.30
2023-04-17T03:40:58.803Z,20.50
2023-04-17T03:43:27.138Z,18.60
2023-04-17T03:45:55.093Z,20.20
2023-04-17T03:48:24.333Z,18.10
2023-04-17T03:50:52.776Z,25.90
2023-04-17T03:53:20.991Z,17.00
2023-04-17T03:55:49.784Z,19.30
2023-04-17T03:58:27.250Z,17.60
2023-04-17T04:00:55.864Z,21.90
2023-04-17T04:03:26.531Z,20.00
2023-04-17T04:05:55.222Z,21.80
2023-04-17T04:08:23.828Z,19.60
2023-04-17T04:10:53.182Z,15.50
2023-04-17T04:13:34.009Z,24.80
2023-04-17T04:16:03.499Z,17.00
2023-04-17T04:18:31.924Z,19.90
2023-04-17T04:21:00.115Z,29.70
2023-04-17T04:23:31.918Z,22.10
2023-04-17T04:26:01.923Z,25.00
2023-04-17T04:28:50.653Z,31.20
2023-04-17T04:31:42.649Z,23.60
2023-04-17T04:34:13.557Z,17.10
2023-04-17T04:36:49.940Z,21.00
2023-04-17T04:39:31.102Z,21.60
2023-04-17T04:42:06.132Z,24.10
2023-04-17T04:44:42.765Z,19.20
2023-04-17T04:47:10.943Z,20.40
2023-04-17T04:49:39.084Z,19.80
2023-04-17T04:52:07.143Z,29.00
2023-04-17T04:54:36.221Z,20.50
2023-04-17T04:57:05.109Z,22.80
2023-04-17T04:59:34.081Z,29.90
2023-04-17T05:02:22.377Z,20.80
2023-04-17T05:04:52.260Z,16.40
2023-04-17T05:07:20.851Z,25.30
2023-04-17T05:09:48.858Z,14.80
2023-04-17T05:12:17.509Z,25.60
2023-04-17T05:14:45.777Z,18.90
2023-04-17T05:17:14.070Z,22.10
2023-04-17T05:19:42.158Z,18.80
2023-04-17T05:22:12.801Z,23.70
2023-04-17T05:24:50.272Z,17.00
2023-04-17T05:27:18.292Z,21.50
2023-04-17T05:29:46.517Z,16.70
2023-04-17T05:32:14.667Z,16.00
2023-04-17T05:34:52.455Z,14.00
2023-04-17T05:37:23.385Z,13.10
2023-04-17T05:39:51.434Z,14.30
2023-04-17T05:42:19.330Z,15.00
2023-04-17T05:44:47.368Z,14.30
2023-04-17T05:47:15.605Z,10.40
2023-04-17T05:49:44.261Z,15.20
2023-04-17T05:52:12.195Z,11.60
2023-04-17T05:54:42.399Z,16.50
2023-04-17T05:57:10.438Z,16.30
2023-04-17T05:59:38.576Z,14.00
2023-04-17T06:02:07.785Z,12.70
2023-04-17T06:04:36.304Z,12.90
2023-04-17T06:07:06.236Z,14.70
2023-04-17T06:09:36.717Z,20.30
2023-04-17T06:12:05.263Z,18.50
2023-04-17T06:14:33.946Z,14.10
2023-04-17T06:17:02.773Z,16.90
2023-04-17T06:19:30.694Z,13.50
2023-04-17T06:21:58.649Z,17.10
2023-04-17T06:24:26.690Z,15.30
2023-04-17T06:26:56.671Z,11.50
2023-04-17T06:29:24.596Z,12.80
2023-04-17T06:31:53.546Z,14.50
2023-04-17T06:34:21.948Z,13.10
2023-04-17T06:36:50.247Z,11.90
2023-04-17T06:39:18.852Z,13.00
2023-04-17T06:41:48.611Z,14.40
2023-04-17T06:44:24.156Z,11.90
2023-04-17T06:46:53.111Z,8.70
2023-04-17T06:49:21.020Z,10.00
2023-04-17T06:51:49.812Z,10.00
2023-04-17T06:54:17.733Z,14.40
2023-04-17T06:56:45.947Z,9.50
2023-04-17T06:59:13.982Z,10.10
2023-04-17T07:01:42.539Z,10.50
2023-04-17T07:04:10.900Z,11.80
2023-04-17T07:06:39.639Z,12.60
2023-04-17T07:09:07.870Z,11.80
2023-04-17T07:11:36.318Z,13.60
2023-04-17T07:14:04.530Z,20.00
2023-04-17T07:16:32.766Z,15.90
2023-04-17T07:19:00.725Z,18.20
2023-04-17T07:21:28.899Z,13.40
2023-04-17T07:23:57.008Z,14.40
2023-04-17T07:26:24.912Z,11.00
2023-04-17T07:28:53.054Z,13.50
2023-04-17T07:31:22.406Z,11.70
2023-04-17T07:33:50.732Z,9.40
2023-04-17T07:36:18.635Z,10.80
2023-04-17T07:38:46.713Z,13.80
2023-04-17T07:41:14.634Z,9.20
2023-04-17T07:43:42.457Z,9.40
2023-04-17T07:46:10.369Z,9.40
2023-04-17T07:48:39.193Z,13.20
2023-04-17T07:51:07.863Z,14.30
2023-04-17T07:53:37.439Z,11.20
2023-04-17T07:56:06.475Z,16.40
2023-04-17T07:58:36.039Z,14.20
2023-04-17T08:01:07.112Z,11.70
2023-04-17T08:03:35.478Z,14.40
2023-04-17T08:06:03.832Z,12.90
2023-04-17T08:08:32.291Z,9.50
2023-04-17T08:11:00.476Z,12.50
2023-04-17T08:13:32.412Z,13.30
2023-04-17T08:16:02.052Z,11.00
2023-04-17T08:18:32.346Z,11.70
2023-04-17T08:21:00.346Z,10.10
2023-04-17T08:23:28.527Z,9.20
2023-04-17T08:25:56.385Z,8.50
2023-04-17T08:28:25.210Z,9.50
2023-04-17T08:30:53.243Z,11.40
2023-04-17T08:33:21.394Z,7.40
2023-04-17T08:35:49.409Z,8.90
2023-04-17T08:38:17.377Z,11.10
2023-04-17T08:40:47.141Z,8.60
2023-04-17T08:43:21.131Z,5.80
2023-04-17T08:45:53.928Z,9.70
2023-04-17T08:48:22.985Z,9.40
2023-04-17T08:50:52.436Z,6.10
2023-04-17T08:53:21.339Z,8.60
2023-04-17T08:55:49.210Z,9.00
2023-04-17T08:58:18.000Z,9.70
2023-04-17T09:00:45.898Z,7.50
2023-04-17T09:03:14.234Z,13.60
2023-04-17T09:05:46.141Z,8.90
2023-04-17T09:08:17.187Z,8.80
2023-04-17T09:10:46.805Z,6.50
2023-04-17T09:13:16.546Z,11.20
2023-04-17T09:15:45.859Z,9.90
2023-04-17T09:18:27.397Z,9.90
2023-04-17T09:20:57.718Z,15.10
2023-04-17T09:23:27.191Z,6.60
2023-04-17T09:26:08.646Z,9.70
2023-04-17T09:28:40.794Z,8.20
2023-04-17T09:31:17.872Z,6.80
2023-04-17T09:34:12.208Z,7.80
2023-04-17T09:36:42.169Z,6.80
2023-04-17T09:39:21.173Z,5.90
2023-04-17T09:41:49.329Z,8.50
2023-04-17T09:44:26.081Z,10.50
2023-04-17T09:46:54.314Z,9.60
2023-04-17T09:49:40.018Z,5.90
2023-04-17T09:52:08.422Z,12.60
2023-04-17T09:54:39.297Z,10.80
2023-04-17T09:57:08.543Z,10.40
2023-04-17T09:59:42.128Z,7.00
2023-04-17T10:02:12.650Z,7.20
2023-04-17T10:04:41.914Z,11.10
2023-04-17T10:07:10.223Z,7.80
2023-04-17T10:09:39.954Z,8.70
2023-04-17T10:12:12.015Z,8.40
2023-04-17T10:14:40.320Z,9.30
2023-04-17T10:17:37.363Z,5.10
2023-04-17T10:20:17.731Z,8.00
2023-04-17T10:22:54.267Z,6.80
2023-04-17T10:25:23.004Z,6.50
2023-04-17T10:27:54.460Z,7.30
2023-04-17T10:30:23.278Z,10.40
2023-04-17T10:33:19.998Z,6.80
2023-04-17T10:35:48.314Z,6.80
2023-04-17T10:38:17.619Z,12.30
2023-04-17T10:40:46.119Z,6.30
2023-04-17T10:43:15.324Z,12.60
2023-04-17T10:46:02.857Z,6.30
2023-04-17T10:48:39.305Z,8.40
2023-04-17T10:51:29.248Z,10.00
2023-04-17T10:54:01.503Z,11.30
2023-04-17T10:56:35.787Z,6.80
2023-04-17T10:59:03.819Z,6.70
2023-04-17T11:01:37.673Z,5.70
2023-04-17T11:04:06.642Z,7.30
2023-04-17T11:06:39.514Z,10.00
2023-04-17T11:09:10.657Z,9.60
2023-04-17T11:11:44.272Z,5.00
2023-04-17T11:14:14.975Z,17.10
2023-04-17T11:16:44.332Z,7.50
2023-04-17T11:19:17.143Z,6.30
2023-04-17T11:21:45.876Z,6.30
2023-04-17T11:24:13.976Z,5.20
2023-04-17T11:26:46.660Z,8.00
2023-04-17T11:29:18.699Z,7.00
2023-04-17T11:31:47.127Z,11.10
2023-04-17T11:34:16.463Z,4.40
2023-04-17T11:36:54.791Z,4.40
2023-04-17T11:39:23.577Z,6.90
2023-04-17T11:41:52.158Z,9.10
2023-04-17T11:44:21.273Z,5.40
2023-04-17T11:46:51.355Z,9.50
2023-04-17T11:49:28.587Z,9.20
2023-04-17T11:51:57.661Z,5.40
2023-04-17T11:54:29.418Z,3.40
2023-04-17T11:57:09.508Z,3.40
2023-04-17T11:59:39.160Z,3.70
2023-04-17T12:02:08.660Z,6.20
2023-04-17T12:04:38.086Z,4.70
2023-04-17T12:07:07.208Z,6.60
2023-04-17T12:09:35.940Z,5.00
2023-04-17T12:12:05.528Z,5.20
2023-04-17T12:14:33.863Z,8.00
2023-04-17T12:17:01.863Z,4.40
2023-04-17T12:19:32.033Z,6.40
2023-04-17T12:22:00.248Z,7.70
2023-04-17T12:24:28.252Z,7.10
2023-04-17T12:26:57.321Z,14.90
2023-04-17T12:29:36.788Z,8.00
2023-04-17T12:32:11.961Z,4.80
2023-04-17T12:34:40.577Z,7.30
2023-04-17T12:37:09.086Z,4.60
2023-04-17T12:39:38.395Z,4.40
2023-04-17T12:42:06.586Z,4.50
2023-04-17T12:44:35.333Z,10.20
2023-04-17T12:47:03.677Z,8.40
2023-04-17T12:49:32.079Z,2.70
2023-04-17T12:52:02.463Z,5.90
2023-04-17T12:54:31.999Z,4.30
2023-04-17T12:56:59.877Z,6.10
2023-04-17T12:59:27.777Z,5.40
2023-04-17T13:01:56.760Z,6.10
2023-04-17T13:04:24.905Z,4.50
2023-04-17T13:06:52.935Z,3.10
2023-04-17T13:09:20.910Z,5.10
2023-04-17T13:11:48.784Z,4.70
2023-04-17T13:14:17.741Z,4.00
2023-04-17T13:16:46.024Z,4.30
2023-04-17T13:19:15.371Z,4.10
2023-04-17T13:21:43.533Z,4.60
2023-04-17T13:24:14.905Z,5.80
2023-04-17T13:26:44.305Z,3.70
2023-04-17T13:29:12.696Z,4.80
2023-04-17T13:31:41.159Z,5.30
2023-04-17T13:34:13.041Z,3.70
2023-04-17T13:36:42.533Z,2.90
2023-04-17T13:39:11.625Z,6.50
2023-04-17T13:41:39.755Z,4.20
2023-04-17T13:44:07.657Z,2.40
2023-04-17T13:46:36.699Z,2.10
2023-04-17T13:49:04.628Z,4.50
2023-04-17T13:51:33.593Z,3.70
2023-04-17T13:54:01.576Z,6.10
2023-04-17T13:56:30.003Z,4.30
2023-04-17T13:58:58.003Z,3.80
2023-04-17T14:01:26.087Z,2.70
2023-04-17T14:03:54.366Z,4.60
2023-04-17T14:06:26.244Z,5.60
2023-04-17T14:08:57.285Z,4.50
2023-04-17T14:11:25.392Z,5.20
2023-04-17T14:13:54.474Z,3.20
2023-04-17T14:16:22.399Z,4.40
2023-04-17T14:18:50.694Z,5.30
2023-04-17T14:21:18.695Z,4.30
2023-04-17T14:23:46.661Z,4.30
2023-04-17T14:26:15.664Z,7.30
2023-04-17T14:28:43.585Z,3.30
2023-04-17T14:31:11.611Z,4.80
2023-04-17T14:33:39.572Z,5.10
2023-04-17T14:36:07.684Z,3.60
2023-04-17T14:38:36.491Z,6.00
2023-04-17T14:41:04.636Z,3.40
2023-04-17T14:43:32.539Z,6.70
2023-04-17T14:46:00.852Z,2.50
2023-04-17T14:49:32.952Z,4.90
2023-04-17T14:51:59.493Z,3.30
2023-04-17T14:54:26.516Z,5.50
2023-04-17T14:56:53.461Z,4.00
2023-04-17T14:59:20.043Z,3.50
2023-04-17T15:01:47.011Z,4.20
2023-04-17T15:04:13.972Z,6.10
2023-04-17T15:06:42.523Z,4.70
2023-04-17T15:09:10.122Z,4.00
2023-04-17T15:11:36.972Z,3.30
2023-04-17T15:14:03.840Z,4.40
2023-04-17T15:16:30.529Z,2.90
2023-04-17T15:18:57.144Z,4.30
2023-04-17T15:21:23.750Z,2.40
2023-04-17T15:23:50.633Z,4.50
2023-04-17T15:26:17.235Z,5.50
2023-04-17T15:28:43.810Z,7.10
2023-04-17T15:31:10.738Z,4.70
2023-04-17T15:33:37.399Z,4.90
2023-04-17T15:36:04.300Z,4.50
2023-04-17T15:38:31.755Z,6.40
2023-04-17T15:40:58.398Z,3.90
2023-04-17T15:43:25.223Z,4.40
2023-04-17T15:45:51.937Z,4.20
2023-04-17T15:48:18.554Z,3.60
2023-04-17T15:50:45.985Z,3.80
2023-04-17T15:53:13.931Z,3.90
2023-04-17T15:55:40.783Z,7.00
2023-04-17T15:58:07.694Z,5.90
2023-04-17T16:00:34.970Z,4.50
2023-04-17T16:03:01.924Z,6.60
2023-04-17T16:05:30.421Z,4.00
2023-04-17T16:07:57.249Z,5.70
2023-04-17T16:10:24.176Z,3.50
2023-04-17T16:12:50.774Z,3.60
2023-04-17T16:15:17.469Z,6.00
2023-04-17T16:17:45.009Z,3.20
2023-04-17T16:20:11.943Z,5.90
2023-04-17T16:22:38.889Z,5.00
2023-04-17T16:25:06.305Z,5.00
2023-04-17T16:27:33.616Z,4.50
2023-04-17T16:30:02.397Z,5.70
2023-04-17T16:32:31.219Z,4.10
2023-04-17T16:34:58.140Z,6.60
2023-04-17T16:37:25.141Z,5.80
2023-04-17T16:39:51.809Z,6.70
2023-04-17T16:42:18.309Z,5.70
2023-04-17T16:44:44.971Z,3.70
2023-04-17T16:47:13.939Z,6.70
2023-04-17T16:49:41.956Z,2.90
2023-04-17T16:52:08.584Z,7.00
2023-04-17T16:54:35.379Z,8.40
2023-04-17T16:57:02.909Z,7.30
2023-04-17T16:59:29.985Z,4.20
2023-04-17T17:01:56.796Z,6.80
2023-04-17T17:04:25.095Z,5.40
2023-04-17T17:06:51.638Z,5.90
2023-04-17T17:09:19.666Z,7.10
2023-04-17T17:11:46.695Z,5.00
2023-04-17T17:14:15.401Z,4.80
2023-04-17T17:16:42.025Z,5.70
2023-04-17T17:19:08.998Z,6.80
2023-04-17T17:21:35.759Z,5.40
2023-04-17T17:24:02.370Z,8.60
2023-04-17T17:26:29.383Z,6.00
2023-04-17T17:28:56.898Z,4.60
2023-04-17T17:31:23.481Z,7.00
2023-04-17T17:33:50.971Z,9.90
2023-04-17T17:36:17.611Z,6.10
2023-04-17T17:38:44.198Z,6.80
2023-04-17T17:41:10.771Z,14.80
2023-04-17T17:43:37.908Z,7.10
2023-04-17T17:46:04.684Z,8.70
2023-04-17T17:48:33.618Z,6.30
2023-04-17T17:51:00.134Z,5.40
2023-04-17T17:53:28.301Z,10.50
2023-04-17T17:55:55.313Z,5.40
2023-04-17T17:58:22.142Z,10.00
2023-04-17T18:00:49.392Z,8.00
2023-04-17T18:03:16.104Z,8.20
2023-04-17T18:05:43.385Z,6.40
2023-04-17T18:08:09.934Z,12.70
2023-04-17T18:10:36.675Z,7.60
2023-04-17T18:13:03.490Z,8.40
2023-04-17T18:15:30.368Z,7.30
2023-04-17T18:17:59.790Z,5.60
2023-04-17T18:20:26.476Z,10.40
2023-04-17T18:22:53.142Z,8.80
2023-04-17T18:25:19.774Z,11.50
2023-04-17T18:27:46.268Z,10.50
2023-04-17T18:30:13.577Z,9.50
2023-04-17T18:32:41.563Z,12.90
2023-04-17T18:35:08.383Z,8.80
2023-04-17T18:37:36.084Z,6.50
2023-04-17T18:40:02.678Z,5.50
2023-04-17T18:42:29.606Z,9.20
2023-04-17T18:44:56.112Z,10.00
2023-04-17T18:47:22.698Z,7.60
2023-04-17T18:49:52.231Z,6.30
2023-04-17T18:52:19.185Z,6.00
2023-04-17T18:54:45.677Z,7.90
2023-04-17T18:57:12.404Z,8.00
2023-04-17T18:59:39.738Z,8.10
2023-04-17T19:02:07.159Z,10.40
2023-04-17T19:04:34.397Z,7.80
2023-04-17T19:07:02.085Z,7.70
2023-04-17T19:09:28.951Z,10.40
2023-04-17T19:11:55.837Z,9.00
2023-04-17T19:14:22.455Z,8.70
2023-04-17T19:16:49.127Z,7.70
2023-04-17T19:19:16.090Z,6.90
2023-04-17T19:21:42.709Z,7.60
2023-04-17T19:24:09.366Z,9.10
2023-04-17T19:26:36.275Z,8.40
2023-04-17T19:29:04.214Z,7.80
2023-04-17T19:31:32.275Z,8.60
2023-04-17T19:33:59.703Z,9.70
2023-04-17T19:36:26.839Z,9.80
2023-04-17T19:38:54.912Z,8.50
2023-04-17T19:41:21.479Z,10.70
2023-04-17T19:43:49.215Z,8.20
2023-04-17T19:46:16.406Z,9.70
2023-04-17T19:48:44.151Z,8.80
2023-04-17T19:51:11.399Z,11.20
2023-04-17T19:53:38.927Z,6.80
2023-04-17T19:56:08.316Z,8.40
2023-04-17T19:58:36.209Z,11.30
2023-04-17T20:01:03.013Z,8.00
2023-04-17T20:03:31.654Z,7.60
2023-04-17T20:05:58.590Z,8.00
2023-04-17T20:08:25.446Z,7.00
2023-04-17T20:10:52.015Z,10.30
2023-04-17T20:13:18.857Z,7.00
2023-04-17T20:15:45.373Z,8.20
2023-04-17T20:18:11.904Z,8.00
2023-04-17T20:20:38.558Z,8.20
2023-04-17T20:23:05.133Z,8.90
2023-04-17T20:25:31.610Z,8.70
2023-04-17T20:27:58.176Z,12.30
2023-04-17T20:30:24.827Z,8.50
2023-04-17T20:32:51.426Z,9.50
2023-04-17T20:35:20.318Z,10.70
2023-04-17T20:37:46.907Z,12.70
2023-04-17T20:40:13.590Z,7.20
2023-04-17T20:42:40.911Z,10.60
2023-04-17T20:45:07.932Z,8.60
2023-04-17T20:47:34.975Z,8.00
2023-04-17T20:50:01.787Z,7.40
2023-04-17T20:52:28.480Z,10.80
2023-04-17T20:54:55.299Z,9.80
2023-04-17T20:57:22.478Z,9.00
2023-04-17T20:59:48.974Z,7.90
2023-04-17T21:02:15.615Z,10.40
2023-04-17T21:04:42.888Z,8.40
2023-04-17T21:07:09.348Z,8.80
2023-04-17T21:09:36.046Z,7.10
2023-04-17T21:12:02.685Z,9.00
2023-04-17T21:14:29.839Z,8.80
2023-04-17T21:16:57.905Z,10.70
2023-04-17T21:19:27.619Z,10.80
2023-04-17T21:21:54.473Z,9.80
2023-04-17T21:24:21.099Z,8.50
2023-04-17T21:26:47.597Z,9.40
2023-04-17T21:29:14.075Z,11.60
2023-04-17T21:31:41.223Z,8.90
2023-04-17T21:34:07.916Z,8.20
2023-04-17T21:36:34.800Z,13.90
2023-04-17T21:39:01.295Z,10.20
2023-04-17T21:41:30.586Z,11.40
2023-04-17T21:44:00.842Z,7.50
2023-04-17T21:46:28.538Z,7.20
2023-04-17T21:48:55.792Z,6.30
2023-04-17T21:51:22.767Z,7.40
2023-04-17T21:53:49.392Z,12.80
2023-04-17T21:56:15.943Z,8.20
2023-04-17T21:58:42.477Z,9.60
2023-04-17T22:01:09.167Z,9.30
2023-04-17T22:03:35.958Z,7.20
2023-04-17T22:06:03.016Z,8.90
2023-04-17T22:08:30.064Z,10.70
2023-04-17T22:10:56.608Z,7.70
2023-04-17T22:13:25.341Z,6.20
2023-04-17T22:15:51.938Z,9.20
2023-04-17T22:18:18.402Z,5.70
2023-04-17T22:20:45.035Z,10.00
2023-04-17T22:23:11.557Z,7.90
2023-04-17T22:25:38.297Z,13.10
2023-04-17T22:28:04.796Z,7.30
2023-04-17T22:30:31.408Z,6.30
2023-04-17T22:32:57.974Z,7.00
2023-04-17T22:35:24.514Z,8.10
2023-04-17T22:37:51.281Z,11.30
2023-04-17T22:40:17.940Z,6.90
2023-04-17T22:42:44.558Z,8.10
2023-04-17T22:45:11.160Z,6.30
2023-04-17T22:47:37.905Z,8.70
2023-04-17T22:50:05.873Z,7.50
2023-04-17T22:52:32.727Z,7.20
2023-04-17T22:54:59.288Z,6.70
2023-04-17T22:57:25.845Z,12.90
2023-04-17T22:59:52.423Z,7.40
2023-04-17T23:02:18.985Z,7.90
2023-04-17T23:04:45.510Z,7.70
2023-04-17T23:07:12.297Z,11.00
2023-04-17T23:09:38.973Z,7.30
2023-04-17T23:12:06.573Z,8.10
2023-04-17T23:14:33.130Z,8.60
2023-04-17T23:16:59.614Z,9.40
2023-04-17T23:19:26.161Z,7.20
2023-04-17T23:21:52.772Z,6.30
2023-04-17T23:24:19.334Z,8.90
2023-04-17T23:26:47.847Z,6.50
2023-04-17T23:29:14.452Z,8.40
2023-04-17T23:31:42.192Z,8.90
2023-04-17T23:34:08.754Z,10.80
2023-04-17T23:36:36.220Z,6.60
2023-04-17T23:39:05.042Z,8.30
2023-04-17T23:41:33.103Z,6.90
2023-04-17T23:43:59.677Z,9.20
2023-04-17T23:46:26.205Z,7.60
2023-04-17T23:48:52.692Z,13.00
2023-04-17T23:51:19.311Z,9.30
2023-04-17T23:53:45.882Z,9.00
2023-04-17T23:56:12.443Z,7.70
2023-04-17T23:58:39.028Z,11.60
